Time;durP1;ratioP1;P1;durP2;ratioP2;P2;SDS_P1;SDS_P2;PMS_P1;PMS_P2;Temp;Humidity;BMP_temperature;BMP_pressure;BME280_temperature;BME280_humidity;BME280_pressure;Samples;Min_cycle;Max_cycle;Signal;HPM_P1;HPM_P2
2020/12/15 00:01:57;;;;;;;1.90;1.73;;;;;;;8.51;55.64;94893.72;6987975;28;20223;-71
2020/12/15 00:05:18;;;;;;;1.57;1.47;;;;;;;8.53;55.16;94894.44;6992241;28;20975;-72
2020/12/15 00:08:38;;;;;;;1.50;1.40;;;;;;;8.61;54.77;94894.59;7006376;28;20317;-72
2020/12/15 00:11:59;;;;;;;9.37;2.20;;;;;;;8.68;55.41;94892.25;6988241;28;20246;-72
2020/12/15 00:15:19;;;;;;;3.37;1.83;;;;;;;8.72;55.63;94891.00;6978757;28;20729;-71
2020/12/15 00:18:39;;;;;;;2.57;1.83;;;;;;;8.78;56.25;94909.00;7009159;28;20258;-72
2020/12/15 00:22:00;;;;;;;3.03;1.70;;;;;;;8.79;55.68;94925.75;6999368;28;20242;-71
2020/12/15 00:25:23;;;;;;;3.20;2.73;;;;;;;8.63;56.61;94920.94;6998553;28;20297;-72
2020/12/15 00:28:44;;;;;;;3.47;3.17;;;;;;;8.52;57.00;94905.13;7017997;28;20228;-71
2020/12/15 00:32:04;;;;;;;2.10;2.00;;;;;;;8.46;57.65;94880.03;7003532;28;20218;-71
2020/12/15 00:35:25;;;;;;;3.20;1.40;;;;;;;8.46;57.31;94872.09;7029360;28;20321;-70
2020/12/15 00:38:45;;;;;;;1.80;1.37;;;;;;;8.52;57.37;94866.28;7024192;28;20249;-71
2020/12/15 00:42:06;;;;;;;1.40;1.30;;;;;;;8.59;58.29;94859.50;7008980;28;20793;-70
2020/12/15 00:45:26;;;;;;;1.27;1.17;;;;;;;8.67;60.10;94863.28;7015243;28;20632;-71
2020/12/15 00:48:47;;;;;;;1.27;1.20;;;;;;;8.78;61.41;94853.44;7022619;28;20305;-71
2020/12/15 00:52:07;;;;;;;1.10;1.00;;;;;;;8.88;61.16;94849.00;7004718;28;21057;-70
2020/12/15 00:55:28;;;;;;;1.50;1.40;;;;;;;8.94;61.22;94844.97;7004797;28;20246;-71
2020/12/15 00:58:48;;;;;;;1.33;1.23;;;;;;;8.98;61.20;94833.13;7022364;28;20213;-71
2020/12/15 01:02:08;;;;;;;1.40;1.30;;;;;;;9.03;61.89;94829.09;7021632;28;20213;-71
2020/12/15 01:05:29;;;;;;;3.40;3.10;;;;;;;9.07;62.77;94834.09;7023186;28;20213;-71
2020/12/15 01:08:50;;;;;;;4.37;3.57;;;;;;;8.87;61.83;94839.38;6992696;28;20300;-71
2020/12/15 01:12:11;;;;;;;3.27;2.90;;;;;;;8.64;61.13;94845.03;6984890;28;20621;-71
2020/12/15 01:15:32;;;;;;;3.00;2.43;;;;;;;8.49;61.51;94849.84;6983112;28;20223;-71
2020/12/15 01:18:52;;;;;;;2.47;2.27;;;;;;;8.41;62.16;94850.50;6994664;28;20228;-71
2020/12/15 01:22:13;;;;;;;2.77;2.20;;;;;;;8.40;62.37;94838.22;6991815;28;20357;-70
2020/12/15 01:25:33;;;;;;;3.10;2.50;;;;;;;8.39;62.00;94841.88;6985412;28;20221;-71
2020/12/15 01:28:53;;;;;;;4.17;2.27;;;;;;;8.47;61.60;94844.69;7010017;28;20595;-71
2020/12/15 01:32:14;;;;;;;3.80;1.93;;;;;;;8.51;61.82;94846.06;7028050;27;20217;-71
2020/12/15 01:35:34;;;;;;;1.67;1.57;;;;;;;8.59;61.41;94851.56;7026986;28;20231;-71
2020/12/15 01:38:55;;;;;;;5.20;1.80;;;;;;;8.66;61.41;94872.16;7032359;28;20208;-71
2020/12/15 01:42:15;;;;;;;2.33;1.73;;;;;;;8.72;61.84;94872.47;7024520;28;20206;-71
2020/12/15 01:45:36;;;;;;;1.57;1.47;;;;;;;8.74;61.73;94859.97;7017274;28;20590;-70
2020/12/15 01:48:57;;;;;;;4.10;1.00;;;;;;;8.79;61.28;94856.91;7018724;28;20598;-71
2020/12/15 01:52:17;;;;;;;1.60;1.50;;;;;;;8.82;61.35;94857.47;7005357;28;20314;-71
2020/12/15 01:55:38;;;;;;;2.03;1.20;;;;;;;8.84;60.01;94871.41;7024411;28;20307;-71
2020/12/15 01:59:03;;;;;;;1.40;1.30;;;;;;;8.83;59.94;94880.34;7019369;28;20706;-71
2020/12/15 02:02:24;;;;;;;2.90;1.93;;;;;;;8.76;60.76;94880.97;7021749;28;20217;-71
2020/12/15 02:05:45;;;;;;;4.10;3.70;;;;;;;8.70;60.18;94861.19;7017862;28;20244;-71
2020/12/15 02:09:06;;;;;;;3.70;3.30;;;;;;;8.56;60.88;94872.13;7018246;28;20233;-71
2020/12/15 02:12:27;;;;;;;2.97;2.67;;;;;;;8.44;59.89;94870.56;7021233;28;20288;-71
2020/12/15 02:15:47;;;;;;;2.83;2.53;;;;;;;8.31;59.56;94867.28;7013065;28;20210;-71
2020/12/15 02:19:14;;;;;;;5.13;3.77;;;;;;;8.20;60.24;94863.72;7016342;28;20218;-71
2020/12/15 02:22:35;;;;;;;3.70;3.40;;;;;;;8.16;60.71;94856.19;6995814;28;20213;-71
2020/12/15 02:25:56;;;;;;;4.47;2.30;;;;;;;8.14;60.81;94839.63;6988197;28;20209;-71
2020/12/15 02:29:17;;;;;;;1.70;1.60;;;;;;;8.19;59.71;94835.63;6989127;28;20214;-71
2020/12/15 02:32:37;;;;;;;3.07;2.20;;;;;;;8.27;57.90;94844.69;6998811;28;20217;-71
2020/12/15 02:35:58;;;;;;;2.13;1.93;;;;;;;8.33;58.04;94845.03;7004551;28;20270;-71
2020/12/15 02:39:19;;;;;;;1.93;1.73;;;;;;;8.37;57.85;94846.44;7003660;28;20245;-72
2020/12/15 02:42:39;;;;;;;3.10;1.70;;;;;;;8.38;58.13;94853.41;6995209;28;20916;-71
2020/12/15 02:46:00;;;;;;;1.67;1.57;;;;;;;8.43;57.81;94850.38;6993452;28;20688;-71
2020/12/15 02:49:23;;;;;;;2.00;1.80;;;;;;;8.45;57.83;94843.97;6993907;28;20297;-70
2020/12/15 02:52:45;;;;;;;2.13;1.50;;;;;;;8.51;57.99;94850.53;6987197;28;20235;-71
2020/12/15 02:56:06;;;;;;;1.50;1.40;;;;;;;8.56;58.11;94851.81;7019128;28;20218;-71
2020/12/15 02:59:26;;;;;;;1.90;1.30;;;;;;;8.65;58.64;94846.69;7015549;28;20249;-71
2020/12/15 03:02:48;;;;;;;1.70;1.60;;;;;;;8.75;58.82;94848.38;6986094;28;20218;-71
2020/12/15 03:06:12;;;;;;;1.43;1.33;;;;;;;8.79;58.31;94839.22;7008627;28;20246;-71
2020/12/15 03:09:32;;;;;;;2.33;1.40;;;;;;;8.86;58.47;94842.97;7018679;28;20598;-71
2020/12/15 03:12:52;;;;;;;1.70;1.40;;;;;;;8.87;58.33;94844.66;7016732;28;20761;-71
2020/12/15 03:16:13;;;;;;;1.30;1.20;;;;;;;8.88;58.20;94845.50;6967898;28;20208;-70
2020/12/15 03:19:33;;;;;;;2.00;1.90;;;;;;;8.79;58.88;94825.97;6991683;28;20645;-70
2020/12/15 03:22:56;;;;;;;2.60;1.77;;;;;;;8.74;59.06;94844.09;6996515;28;20240;-71
2020/12/15 03:26:17;;;;;;;2.10;1.90;;;;;;;8.67;59.27;94827.06;7002596;28;20228;-71
2020/12/15 03:29:38;;;;;;;1.67;1.57;;;;;;;8.65;59.11;94823.69;6996368;28;20245;-71
2020/12/15 03:32:58;;;;;;;1.60;1.50;;;;;;;8.59;59.89;94825.09;7002532;28;20270;-71
2020/12/15 03:36:19;;;;;;;1.50;1.40;;;;;;;8.55;60.08;94828.97;7001643;28;20309;-71
2020/12/15 03:39:40;;;;;;;1.30;1.20;;;;;;;8.56;60.42;94840.38;7015820;28;20340;-71
2020/12/15 03:43:00;;;;;;;1.40;1.30;;;;;;;8.57;61.22;94832.31;6982999;28;20218;-71
2020/12/15 03:46:21;;;;;;;1.57;1.33;;;;;;;8.63;61.23;94836.25;7009346;28;20713;-71
2020/12/15 03:49:41;;;;;;;1.50;1.40;;;;;;;8.72;61.13;94832.78;7003191;28;20311;-71
2020/12/15 03:53:02;;;;;;;2.87;1.27;;;;;;;8.84;60.95;94815.81;6994194;28;20294;-71
2020/12/15 03:56:23;;;;;;;1.10;1.00;;;;;;;8.94;61.38;94811.38;6998710;28;20218;-71
2020/12/15 03:59:43;;;;;;;1.77;0.93;;;;;;;9.01;61.49;94814.28;7007042;28;20221;-71
2020/12/15 04:03:04;;;;;;;1.40;1.30;;;;;;;9.04;61.96;94817.53;6991605;28;20223;-71
2020/12/15 04:06:27;;;;;;;1.00;1.00;;;;;;;9.04;62.24;94817.53;7002636;28;20227;-71
2020/12/15 04:09:50;;;;;;;1.30;1.17;;;;;;;9.04;62.98;94814.88;6990128;28;20246;-71
2020/12/15 04:13:10;;;;;;;1.47;1.10;;;;;;;9.01;63.27;94835.47;6991994;28;20219;-71
2020/12/15 04:16:33;;;;;;;1.60;1.20;;;;;;;9.04;64.01;94844.00;6986552;28;20653;-71
2020/12/15 04:19:53;;;;;;;1.70;1.60;;;;;;;9.02;64.25;94845.09;7005680;28;20238;-71
2020/12/15 04:23:14;;;;;;;2.43;2.23;;;;;;;8.99;64.35;94832.16;7000819;28;20222;-71
2020/12/15 04:26:34;;;;;;;1.20;1.10;;;;;;;9.01;65.05;94831.03;6994668;28;20221;-71
2020/12/15 04:29:55;;;;;;;3.87;2.90;;;;;;;9.04;65.49;94838.72;6983050;28;20223;-71
2020/12/15 04:33:18;;;;;;;2.50;2.27;;;;;;;9.04;65.18;94841.38;7015298;28;20647;-72
2020/12/15 04:36:38;;;;;;;2.23;2.07;;;;;;;9.10;65.32;94852.38;6992711;28;20237;-71
2020/12/15 04:39:58;;;;;;;2.00;1.90;;;;;;;9.14;65.87;94837.88;6993413;28;20225;-70
2020/12/15 04:43:20;;;;;;;1.70;1.60;;;;;;;9.14;66.37;94817.53;6986720;27;20243;-70
2020/12/15 04:46:51;;;;;;;1.17;1.17;;;;;;;9.19;67.32;94823.25;6983135;28;20257;-71
2020/12/15 04:50:14;;;;;;;1.63;1.00;;;;;;;9.27;67.71;94841.94;6995390;28;20218;-70
2020/12/15 04:53:36;;;;;;;1.80;1.60;;;;;;;9.24;66.11;94846.69;7000970;27;20246;-71
2020/12/15 04:57:02;;;;;;;3.00;1.80;;;;;;;9.08;65.20;94835.78;7012042;28;20224;-71
2020/12/15 05:00:25;;;;;;;2.07;1.43;;;;;;;9.01;66.44;94830.19;7015113;28;20246;-72
2020/12/15 05:03:46;;;;;;;1.50;1.40;;;;;;;8.97;66.80;94828.78;6985416;28;20222;-72
2020/12/15 05:07:10;;;;;;;3.53;1.47;;;;;;;8.93;66.53;94841.47;7002490;28;20238;-71
2020/12/15 05:10:30;;;;;;;2.40;1.63;;;;;;;8.87;67.22;94854.41;6995298;28;20215;-72
2020/12/15 05:13:51;;;;;;;1.70;1.60;;;;;;;8.87;67.27;94843.81;7013745;27;20213;-71
2020/12/15 05:17:21;;;;;;;2.23;1.80;;;;;;;8.86;66.85;94845.63;6990731;28;20578;-72
2020/12/15 05:20:42;;;;;;;1.60;1.50;;;;;;;8.88;67.26;94849.00;6988748;28;20209;-72
2020/12/15 05:24:08;;;;;;;1.50;1.40;;;;;;;8.97;66.48;94857.91;7010045;28;20288;-72
2020/12/15 05:27:31;;;;;;;1.50;1.40;;;;;;;9.01;66.96;94846.91;6988307;28;20226;-72
2020/12/15 05:31:00;;;;;;;1.97;1.70;;;;;;;9.00;66.52;94853.19;6974251;28;20211;-70
2020/12/15 05:34:23;;;;;;;2.13;1.30;;;;;;;9.05;66.81;94858.91;6976650;28;20209;-71
2020/12/15 05:37:46;;;;;;;2.10;1.30;;;;;;;9.11;67.49;94859.34;6964835;28;20218;-72
2020/12/15 05:41:13;;;;;;;1.67;1.57;;;;;;;9.10;67.36;94863.81;6979897;28;20218;-71
2020/12/15 05:44:40;;;;;;;1.40;1.30;;;;;;;9.09;67.26;94880.69;6994194;28;20250;-72
2020/12/15 05:48:06;;;;;;;1.90;1.70;;;;;;;9.15;66.40;94874.00;6981131;28;20230;-72
2020/12/15 05:51:45;;;;;;;1.30;1.20;;;;;;;9.18;66.42;94871.06;7011764;28;20654;-72
2020/12/15 05:55:09;;;;;;;2.10;1.30;;;;;;;9.19;66.34;94870.09;6998742;28;20213;-71
2020/12/15 05:58:29;;;;;;;5.97;2.60;;;;;;;9.19;66.42;94878.06;6995729;28;20215;-72
2020/12/15 06:01:52;;;;;;;5.67;3.53;;;;;;;9.06;66.05;94883.59;6997124;28;20265;-70
2020/12/15 06:05:12;;;;;;;6.87;4.23;;;;;;;8.97;65.87;94885.25;7004898;28;20269;-72
2020/12/15 06:08:34;;;;;;;7.20;5.90;;;;;;;8.95;66.95;94884.53;7027633;27;20256;-72
2020/12/15 06:11:54;;;;;;;7.73;4.90;;;;;;;8.95;67.42;94887.19;7004186;27;20316;-72
2020/12/15 06:15:15;;;;;;;5.97;4.63;;;;;;;8.99;68.27;94888.59;6993861;28;20208;-72
2020/12/15 06:18:36;;;;;;;4.13;3.17;;;;;;;9.01;67.96;94897.22;6987308;28;20217;-73
2020/12/15 06:21:57;;;;;;;3.13;2.20;;;;;;;9.10;67.89;94900.06;6996007;28;20242;-72
2020/12/15 06:25:34;;;;;;;2.37;2.00;;;;;;;9.18;67.76;94893.09;6988818;28;20315;-73
2020/12/15 06:28:59;;;;;;;1.87;1.77;;;;;;;9.24;68.28;94879.31;7007655;28;20231;-72
2020/12/15 06:32:20;;;;;;;2.60;1.73;;;;;;;9.31;68.87;94882.22;7003364;28;20559;-73
2020/12/15 06:35:44;;;;;;;1.90;1.50;;;;;;;9.41;68.26;94880.44;7008174;28;20675;-72
2020/12/15 06:39:13;;;;;;;2.43;1.60;;;;;;;9.49;68.58;94875.28;7000439;28;20308;-73
2020/12/15 06:42:35;;;;;;;2.17;1.60;;;;;;;9.56;69.49;94880.84;7000919;28;20366;-73
2020/12/15 06:46:10;;;;;;;1.93;1.60;;;;;;;9.55;69.37;94876.56;7001900;28;20240;-73
2020/12/15 06:49:33;;;;;;;3.17;2.07;;;;;;;9.54;69.60;94886.31;7001137;28;20228;-73
2020/12/15 06:52:54;;;;;;;2.40;2.13;;;;;;;9.56;69.55;94889.66;7000519;27;20690;-71
2020/12/15 06:56:15;;;;;;;2.40;2.00;;;;;;;9.56;70.77;94887.00;7000938;28;20227;-72
2020/12/15 06:59:39;;;;;;;1.50;1.30;;;;;;;9.58;71.29;94892.16;7009550;28;20301;-73
2020/12/15 07:03:03;;;;;;;2.00;1.73;;;;;;;9.62;70.97;94905.00;6979088;28;20216;-73
2020/12/15 07:06:24;;;;;;;2.33;1.47;;;;;;;9.67;70.51;94905.44;7001698;28;20211;-72
2020/12/15 07:09:45;;;;;;;2.20;1.80;;;;;;;9.74;69.85;94897.75;7021932;27;20643;-73
2020/12/15 07:13:05;;;;;;;4.43;3.67;;;;;;;9.79;70.05;94903.47;6999433;28;20707;-73
2020/12/15 07:16:27;;;;;;;2.90;2.40;;;;;;;9.81;69.69;94901.50;6992238;28;20214;-72
2020/12/15 07:19:47;;;;;;;2.10;1.40;;;;;;;9.81;70.25;94898.84;7000779;28;20237;-73
2020/12/15 07:23:08;;;;;;;2.73;1.60;;;;;;;9.77;70.90;94893.00;6998320;28;20208;-74
2020/12/15 07:26:33;;;;;;;2.10;1.50;;;;;;;9.76;70.99;94896.63;6983102;28;20230;-74
2020/12/15 07:29:54;;;;;;;2.00;1.60;;;;;;;9.75;71.48;94908.25;6991264;28;20218;-74
2020/12/15 07:33:18;;;;;;;2.57;2.10;;;;;;;9.77;71.86;94910.72;6993909;28;20240;-75
2020/12/15 07:36:44;;;;;;;2.30;2.10;;;;;;;9.76;71.92;94909.88;6986581;28;20203;-75
2020/12/15 07:40:05;;;;;;;3.00;2.80;;;;;;;9.79;72.19;94909.63;6970199;28;20290;-75
2020/12/15 07:43:26;;;;;;;3.07;2.20;;;;;;;9.78;72.22;94915.91;6973801;28;20219;-74
2020/12/15 07:46:47;;;;;;;1.90;1.60;;;;;;;9.78;72.44;94912.41;6971212;28;20230;-75
2020/12/15 07:50:08;;;;;;;1.80;1.70;;;;;;;9.78;72.90;94918.56;6985928;28;20218;-75
2020/12/15 07:53:32;;;;;;;3.87;3.57;;;;;;;9.71;72.79;94908.63;6984437;28;20211;-75
2020/12/15 07:56:52;;;;;;;4.40;3.30;;;;;;;9.64;73.22;94918.97;6990655;28;20689;-77
2020/12/15 08:00:15;;;;;;;5.53;5.03;;;;;;;9.59;73.29;94915.91;6986238;28;20209;-78
2020/12/15 08:03:38;;;;;;;4.13;3.73;;;;;;;9.60;73.74;94914.09;7002375;28;20210;-76
2020/12/15 08:07:04;;;;;;;2.97;2.50;;;;;;;9.61;74.72;94931.63;7010173;28;20217;-76
2020/12/15 08:10:37;;;;;;;310.83;18.80;;;;;;;9.53;74.26;94950.91;6997898;28;20291;-76
2020/12/15 08:14:02;;;;;;;13.67;3.30;;;;;;;9.26;73.62;94956.00;6982093;28;20293;-75
2020/12/15 08:17:23;;;;;;;14.73;3.23;;;;;;;9.19;74.42;94962.81;7006159;28;20640;-76
2020/12/15 08:20:48;;;;;;;5.73;3.73;;;;;;;9.11;74.83;94963.47;6986941;28;20360;-75
2020/12/15 08:24:13;;;;;;;10.63;8.60;;;;;;;9.09;75.23;94969.91;7016819;28;20256;-77
2020/12/15 08:27:36;;;;;;;5.43;4.80;;;;;;;9.13;75.69;94958.91;6993442;28;20832;-77
2020/12/15 08:30:56;;;;;;;6.40;5.70;;;;;;;9.23;76.26;94965.06;7017040;28;20217;-76
2020/12/15 08:34:19;;;;;;;5.23;3.40;;;;;;;9.34;76.28;94970.25;6996327;28;20214;-76
2020/12/15 08:37:42;;;;;;;3.70;3.30;;;;;;;9.50;76.02;94966.25;6978125;28;20213;-77
2020/12/15 08:41:05;;;;;;;3.43;2.33;;;;;;;9.64;75.07;94974.66;6981607;28;20289;-77
2020/12/15 08:44:34;;;;;;;2.97;2.00;;;;;;;9.76;74.93;94970.03;7005653;28;20238;-74
2020/12/15 08:47:56;;;;;;;3.70;1.80;;;;;;;9.82;74.94;94975.63;6972822;28;20783;-74
2020/12/15 08:51:17;;;;;;;2.70;1.67;;;;;;;9.90;74.88;94981.09;6979580;28;20257;-74
2020/12/15 08:54:43;;;;;;;2.67;1.87;;;;;;;9.99;75.20;94976.78;6955578;28;20291;-77
2020/12/15 08:58:08;;;;;;;3.00;2.20;;;;;;;10.04;74.91;94979.84;6980617;28;20303;-75
2020/12/15 09:01:29;;;;;;;2.43;2.10;;;;;;;10.08;74.73;94970.63;7000764;28;20839;-75
2020/12/15 09:04:49;;;;;;;2.87;1.90;;;;;;;10.13;75.05;94963.06;7010407;27;20324;-76
2020/12/15 09:08:12;;;;;;;2.63;1.73;;;;;;;10.18;74.54;94963.53;6970484;28;20237;-75
2020/12/15 09:11:34;;;;;;;3.03;1.90;;;;;;;10.21;74.29;94949.16;6964986;28;20271;-75
2020/12/15 09:15:00;;;;;;;2.63;1.60;;;;;;;10.26;74.48;94954.88;6973086;28;20282;-76
2020/12/15 09:18:43;;;;;;;2.87;1.80;;;;;;;10.30;74.93;94962.41;6972235;28;20644;-75
2020/12/15 09:22:06;;;;;;;3.07;1.90;;;;;;;10.35;74.66;94958.50;6987291;28;20316;-76
2020/12/15 09:25:26;;;;;;;2.57;2.33;;;;;;;10.38;74.89;94952.88;6967313;28;20212;-78
2020/12/15 09:28:48;;;;;;;4.10;1.80;;;;;;;10.40;75.01;94954.44;6988504;28;20214;-77
2020/12/15 09:32:10;;;;;;;5.13;3.00;;;;;;;10.44;75.21;94960.28;6986979;28;20298;-77
2020/12/15 09:35:33;;;;;;;20.57;4.77;;;;;;;10.48;75.60;94964.31;6990857;28;20257;-76
2020/12/15 09:38:54;;;;;;;11.00;2.30;;;;;;;10.53;75.71;94964.72;7001809;28;20226;-77
2020/12/15 09:42:16;;;;;;;8.30;2.60;;;;;;;10.55;75.67;94974.25;6961521;28;20240;-77
2020/12/15 09:45:39;;;;;;;8.93;2.77;;;;;;;10.56;75.92;94975.91;7007206;28;20218;-77
2020/12/15 09:49:05;;;;;;;8.33;7.53;;;;;;;10.55;76.06;94987.53;6971480;28;20226;-77
2020/12/15 09:52:28;;;;;;;3.37;3.07;;;;;;;10.55;76.53;94982.22;6983798;28;20214;-77
2020/12/15 09:55:53;;;;;;;4.90;2.33;;;;;;;10.55;76.03;94982.22;6995592;28;20209;-77
2020/12/15 09:59:18;;;;;;;36.03;5.93;;;;;;;10.57;76.57;94977.56;6978319;28;20229;-76
2020/12/15 10:02:38;;;;;;;19.83;3.50;;;;;;;10.58;76.68;94976.59;6973222;28;20206;-77
2020/12/15 10:05:59;;;;;;;5.20;1.90;;;;;;;10.59;76.68;94972.97;6994496;28;20218;-76
2020/12/15 10:09:19;;;;;;;2.43;1.70;;;;;;;10.59;76.46;94972.97;6998573;28;20723;-77
2020/12/15 10:12:40;;;;;;;3.60;1.40;;;;;;;10.60;76.45;94969.34;6984834;28;20208;-76
2020/12/15 10:16:00;;;;;;;4.27;1.90;;;;;;;10.60;76.23;94972.00;6971768;28;20212;-76
2020/12/15 10:19:21;;;;;;;2.60;1.50;;;;;;;10.61;76.22;94962.22;6993871;28;20301;-77
2020/12/15 10:22:44;;;;;;;2.67;1.20;;;;;;;10.64;76.18;94970.72;6992286;28;20214;-77
2020/12/15 10:26:04;;;;;;;1.97;1.20;;;;;;;10.69;76.14;94978.25;6976972;28;20585;-76
2020/12/15 10:29:29;;;;;;;5.07;4.17;;;;;;;10.75;75.71;94983.84;6974238;28;20702;-76
2020/12/15 10:32:52;;;;;;;2.93;2.73;;;;;;;10.80;75.24;94972.78;6991693;28;20211;-76
2020/12/15 10:36:17;;;;;;;1.97;1.50;;;;;;;10.84;75.59;94975.97;6998639;28;20211;-76
2020/12/15 10:39:39;;;;;;;1.93;1.20;;;;;;;10.87;75.48;94967.72;7000641;28;20716;-76
2020/12/15 10:43:02;;;;;;;2.87;1.27;;;;;;;10.93;75.02;94978.59;6973527;28;20581;-77
2020/12/15 10:46:25;;;;;;;2.30;1.67;;;;;;;11.00;74.67;94963.78;6989064;28;20221;-77
2020/12/15 10:49:46;;;;;;;1.30;1.13;;;;;;;11.08;74.19;94957.72;6986479;28;20634;-76
2020/12/15 10:53:10;;;;;;;2.80;1.47;;;;;;;11.09;74.16;94976.19;6985954;28;20680;-76
2020/12/15 10:56:33;;;;;;;9.63;5.93;;;;;;;11.10;74.77;94982.34;6993859;28;20625;-77
2020/12/15 10:59:56;;;;;;;5.33;3.50;;;;;;;11.03;75.58;94984.72;7004272;28;20222;-77
2020/12/15 11:03:16;;;;;;;5.50;3.33;;;;;;;11.03;76.03;94991.84;7023080;27;20269;-77
2020/12/15 11:06:43;;;;;;;2.17;1.37;;;;;;;11.05;75.95;95005.84;7006825;28;20686;-79
2020/12/15 11:10:05;;;;;;;2.43;1.30;;;;;;;11.13;76.09;95012.09;7018051;28;20248;-77
2020/12/15 11:13:28;;;;;;;1.77;1.20;;;;;;;11.15;75.83;95019.94;7020570;28;20220;-78
2020/12/15 11:16:53;;;;;;;4.67;3.07;;;;;;;10.96;74.82;95044.75;7018481;28;20225;-78
2020/12/15 11:20:16;;;;;;;87.57;8.30;;;;;;;10.68;75.12;95040.31;6999769;28;20268;-78
2020/12/15 11:23:42;;;;;;;5.53;3.63;;;;;;;10.45;74.75;95047.75;7032489;28;20203;-78
2020/12/15 11:27:04;;;;;;;9.23;7.30;;;;;;;10.35;75.62;95049.56;7023824;28;20216;-76
2020/12/15 11:30:25;;;;;;;5.53;4.87;;;;;;;10.23;76.31;95048.00;7022502;28;20219;-76
2020/12/15 11:33:46;;;;;;;4.43;3.83;;;;;;;10.15;76.69;95051.34;7021561;28;20217;-77
2020/12/15 11:37:09;;;;;;;5.83;3.50;;;;;;;10.16;77.22;95063.63;7022115;28;20216;-77
2020/12/15 11:40:30;;;;;;;5.33;4.10;;;;;;;10.21;77.31;95055.28;7007427;28;20767;-77
2020/12/15 11:43:51;;;;;;;5.77;4.60;;;;;;;10.26;77.80;95069.78;6988424;28;20232;-77
2020/12/15 11:47:11;;;;;;;5.73;5.23;;;;;;;10.31;77.66;95077.38;7009974;28;20311;-77
2020/12/15 11:50:32;;;;;;;5.90;5.23;;;;;;;10.31;77.79;95064.91;7017806;28;20297;-78
2020/12/15 11:53:53;;;;;;;4.77;4.00;;;;;;;10.35;77.63;95070.81;7009661;28;20233;-77
2020/12/15 11:57:17;;;;;;;4.47;3.17;;;;;;;10.38;77.82;95069.66;6992955;28;20214;-79
2020/12/15 12:00:37;;;;;;;4.73;3.30;;;;;;;10.37;77.93;95073.28;6997387;28;20246;-78
2020/12/15 12:04:02;;;;;;;4.60;4.17;;;;;;;10.36;77.84;95084.91;7013967;28;20226;-77
2020/12/15 12:07:23;;;;;;;4.63;3.53;;;;;;;10.37;77.58;95089.22;7020417;28;20233;-78
2020/12/15 12:10:47;;;;;;;5.17;3.83;;;;;;;10.41;78.06;95102.06;6991789;28;20575;-77
2020/12/15 12:14:08;;;;;;;3.90;3.57;;;;;;;10.50;78.20;95109.22;7017660;28;20272;-77
2020/12/15 12:17:28;;;;;;;4.80;3.57;;;;;;;10.55;78.68;95104.34;7009390;28;20247;-77
2020/12/15 12:20:49;;;;;;;4.47;3.20;;;;;;;10.57;78.40;95097.06;7009979;28;20242;-77
2020/12/15 12:24:09;;;;;;;3.67;3.00;;;;;;;10.63;78.52;95095.66;6982194;28;20225;-79
2020/12/15 12:27:29;;;;;;;5.50;3.30;;;;;;;10.69;78.93;95101.25;7007452;28;20221;-79
2020/12/15 12:30:54;;;;;;;4.23;2.50;;;;;;;10.77;78.95;95106.69;7017428;27;20214;-77
2020/12/15 12:34:15;;;;;;;3.80;3.20;;;;;;;10.86;79.27;95102.38;6999279;28;20743;-77
2020/12/15 12:37:35;;;;;;;3.03;2.20;;;;;;;10.86;78.63;95098.88;6990628;28;20681;-78
2020/12/15 12:40:56;;;;;;;2.30;1.87;;;;;;;10.87;78.42;95103.19;6997890;28;20240;-78
2020/12/15 12:44:19;;;;;;;5.10;2.00;;;;;;;10.90;78.62;95110.88;7002814;28;20264;-78
2020/12/15 12:47:39;;;;;;;6.97;5.40;;;;;;;10.89;78.33;95102.06;7012025;28;20238;-78
2020/12/15 12:51:00;;;;;;;4.53;2.40;;;;;;;10.91;78.59;95093.97;7004114;28;20222;-78
2020/12/15 12:54:23;;;;;;;6.60;3.67;;;;;;;10.96;78.62;95099.69;7005583;28;20292;-77
2020/12/15 12:57:47;;;;;;;5.57;3.33;;;;;;;10.98;78.90;95093.25;7017022;27;20332;-77
2020/12/15 13:01:09;;;;;;;6.70;4.43;;;;;;;11.01;78.79;95086.81;7002040;28;20675;-77
2020/12/15 13:04:30;;;;;;;4.87;3.80;;;;;;;11.04;79.07;95089.19;7025197;27;20854;-77
2020/12/15 13:07:53;;;;;;;6.97;3.87;;;;;;;11.07;78.70;95100.38;7020721;27;20225;-77
2020/12/15 13:11:14;;;;;;;20.63;17.43;;;;;;;11.06;78.59;95100.53;7011360;28;20213;-77
2020/12/15 13:14:35;;;;;;;15.70;12.77;;;;;;;11.08;79.06;95112.66;7001264;28;20217;-78
2020/12/15 13:17:55;;;;;;;7.57;6.60;;;;;;;11.10;79.27;95107.22;7019373;28;20302;-78
2020/12/15 13:21:18;;;;;;;6.47;4.50;;;;;;;11.09;79.40;95111.69;6971236;28;20224;-77
2020/12/15 13:24:40;;;;;;;5.93;3.93;;;;;;;11.11;79.67;95111.56;6986353;28;20209;-77
2020/12/15 13:28:03;;;;;;;5.70;3.33;;;;;;;11.13;79.65;95109.59;7003925;28;20230;-77
2020/12/15 13:31:24;;;;;;;9.83;4.53;;;;;;;11.13;79.63;95099.78;6990920;28;20282;-77
2020/12/15 13:34:46;;;;;;;59.17;11.47;;;;;;;11.17;79.61;95109.16;6997329;28;20223;-77
2020/12/15 13:38:09;;;;;;;37.20;8.30;;;;;;;11.16;79.24;95115.47;7007676;28;20220;-77
2020/12/15 13:41:32;;;;;;;16.87;5.20;;;;;;;11.17;79.83;95119.78;7011991;28;20229;-77
2020/12/15 13:44:55;;;;;;;8.17;3.43;;;;;;;11.21;79.83;95119.50;7012916;28;20219;-79
2020/12/15 13:48:18;;;;;;;7.83;2.60;;;;;;;11.21;80.05;95131.00;7009350;28;20226;-78
2020/12/15 13:51:39;;;;;;;5.23;1.90;;;;;;;11.23;80.02;95136.13;6989914;28;20222;-76
2020/12/15 13:54:59;;;;;;;5.33;4.10;;;;;;;11.23;79.49;95129.00;7016814;28;20218;-77
2020/12/15 13:58:22;;;;;;;4.33;1.97;;;;;;;11.24;79.31;95137.81;7018015;28;20222;-78
2020/12/15 14:01:44;;;;;;;1.83;1.40;;;;;;;11.22;79.79;95142.47;7011090;28;20246;-77
2020/12/15 14:05:07;;;;;;;1.97;1.17;;;;;;;11.21;79.68;95138.97;7010295;28;20288;-77
2020/12/15 14:08:27;;;;;;;2.93;1.33;;;;;;;11.21;80.03;95133.66;7016710;28;20225;-78
2020/12/15 14:11:49;;;;;;;3.83;1.30;;;;;;;11.22;80.21;95143.28;7015640;28;20223;-78
2020/12/15 14:15:10;;;;;;;3.60;1.90;;;;;;;11.23;80.29;95144.97;7013241;28;20218;-76
2020/12/15 14:18:35;;;;;;;3.00;2.70;;;;;;;11.25;79.84;95142.16;7021019;28;20261;-78
2020/12/15 14:21:55;;;;;;;3.97;1.67;;;;;;;11.24;79.67;95159.94;7015164;28;20337;-76
2020/12/15 14:25:18;;;;;;;1.97;1.60;;;;;;;11.20;79.97;95161.19;7012082;28;20226;-78
2020/12/15 14:28:39;;;;;;;3.03;1.50;;;;;;;11.20;80.32;95163.84;7012418;28;20224;-76
2020/12/15 14:32:04;;;;;;;1.77;1.30;;;;;;;11.20;80.16;95155.88;7021593;28;20288;-77
2020/12/15 14:35:26;;;;;;;1.70;1.40;;;;;;;11.22;80.17;95169.03;7033716;27;20221;-78
2020/12/15 14:38:49;;;;;;;1.50;1.40;;;;;;;11.23;79.94;95170.69;7036557;27;20303;-77
2020/12/15 14:42:10;;;;;;;1.50;1.10;;;;;;;11.23;80.41;95173.34;7019704;27;20400;-77
2020/12/15 14:45:33;;;;;;;2.33;1.10;;;;;;;11.22;80.10;95182.31;7019689;28;20237;-78
2020/12/15 14:48:56;;;;;;;1.67;1.17;;;;;;;11.22;80.10;95182.31;7020173;27;20225;-78
2020/12/15 14:52:18;;;;;;;1.20;1.10;;;;;;;11.21;80.28;95178.00;7012373;28;20212;-77
2020/12/15 14:55:43;;;;;;;1.70;1.20;;;;;;;11.18;80.28;95187.91;7013535;28;20209;-78
2020/12/15 14:59:03;;;;;;;1.67;1.00;;;;;;;11.16;80.07;95191.72;7022478;28;20217;-77
2020/12/15 15:02:26;;;;;;;1.20;1.10;;;;;;;11.13;79.78;95190.16;7045163;27;20395;-77
2020/12/15 15:05:49;;;;;;;0.90;0.90;;;;;;;11.07;80.09;95203.16;7010123;28;20281;-78
2020/12/15 15:09:10;;;;;;;1.40;1.13;;;;;;;11.03;80.04;95196.44;7029781;27;20228;-73
2020/12/15 15:12:33;;;;;;;2.70;1.30;;;;;;;11.03;79.61;95199.94;7026941;28;20273;-77
2020/12/15 15:15:53;;;;;;;1.20;1.10;;;;;;;11.06;79.68;95209.47;7023227;28;20220;-78
2020/12/15 15:19:13;;;;;;;2.47;2.13;;;;;;;11.04;79.62;95212.25;7020345;28;20226;-77
2020/12/15 15:22:34;;;;;;;4.70;3.47;;;;;;;11.04;79.90;95203.44;7026818;28;20221;-77
2020/12/15 15:25:59;;;;;;;1.40;1.30;;;;;;;11.02;79.67;95211.53;6993963;28;20308;-77
2020/12/15 15:29:19;;;;;;;5.53;4.90;;;;;;;11.02;79.40;95208.88;7010178;28;20299;-77
2020/12/15 15:32:42;;;;;;;3.00;2.50;;;;;;;11.01;79.78;95215.22;7016813;28;20232;-77
2020/12/15 15:36:03;;;;;;;17.43;12.90;;;;;;;10.99;79.39;95225.13;7014269;28;20225;-77
2020/12/15 15:39:28;;;;;;;14.00;10.47;;;;;;;10.97;79.38;95235.03;7011731;28;20296;-77
2020/12/15 15:42:49;;;;;;;16.63;13.13;;;;;;;10.95;79.99;95233.50;7026913;28;20267;-77
2020/12/15 15:46:09;;;;;;;49.93;28.93;;;;;;;10.95;79.88;95233.50;7019867;28;20228;-78
2020/12/15 15:49:32;;;;;;;31.97;21.03;;;;;;;10.89;79.86;95234.91;7016398;28;20265;-78
2020/12/15 15:52:52;;;;;;;21.90;11.57;;;;;;;10.88;79.43;95227.91;6995002;28;20202;-78
2020/12/15 15:56:14;;;;;;;14.63;7.40;;;;;;;10.88;79.80;95235.03;7028527;28;20221;-77